GRZ543 Details

Departure: Ted Stevens Anchorage International Airport (PANC)
Arrival: Denver International Airport (KDEN)
Route: TED JOH BKA J195 ANN 5000N/12200W GEG DLN CKW TSHNR3


Current Weather Information
PANC 171553Z 36015G20KT 10SM FEW200 15/03 A3015 RMK AO2 SLP210 T01500028
KDEN 171553Z 26004KT 10SM FEW110 FEW180 27/04 A2996 RMK AO2 SLP055 T02720039